Myrtle Beach, SC

12:51 PM EDT on March 28, 2015 (GMT -0400)
Grand Strand | | Change Station
CLOSE
Current Station
Airport
Location: North Myrtle Beach,
Elevation: 33 ft
Nearby Weather Stations
Active Advisory: Freeze Warning

Elev 33 ft 33.81 °N, 78.72 °W | Updated 58 minutes ago

Mostly Cloudy
Mostly Cloudy
48 °F
Feels Like 48 °F
N
9
Wind Variable Wind from West

Today
High -- | Low -- °F
--% Chance of Precip.
Yesterday
High -- | Low -- °F
Precip. -- in
7:08 AM 7:32 PM
Waxing Gibbous, 63% visible
Pressure 30.06 in
Visibility 10.0 miles
Clouds Mostly Cloudy 4100 ft
Dew Point 31 °F
Humidity 52%
Rainfall 0.13 in
Snow Depth Not available.
UV 5 out of 12
Pollen 9.40 out of 12
Air Quality Not available.
Flu Activity Not available.
METAR KCRE 281553Z 28008KT 10SM BKN041 09/M01 A3006 RMK AO1 SLP179 T00891006

More Conditions Fewer Conditions

Pressure 30.06 in
Visibility 10.0 miles
Clouds Mostly Cloudy 4100 ft
Dew Point 31 °F
Humidity 52%
Rainfall 0.13 in
Snow Depth Not available.
UV 5 out of 12
Pollen 9.40 out of 12
Air Quality Not available.
Flu Activity Not available.
METAR KCRE 281553Z 28008KT 10SM BKN041 09/M01 A3006 RMK AO1 SLP179 T00891006

More Conditions Fewer Conditions

10-Day Weather Forecast

Almanac

Astronomy

Mar. 28, 2015 Rise Set
Actual Time
Civil Twilight
Nautical Twilight
Astronomical Twilight
Moon
Length of Visible Light
Length of Day
Tomorrow will be .
, % of the Moon is Illuminated

Today's Extremes

State Highs State Lows

Community

WunderPhotos

Upload Photos

1,809,028 photos uploaded!

WunderBlogs® & News

Nearby

Air Quality

  Air Quality AQ Index Pollutant
Not available.

Snow Depth

Station Depth Elevation

Earthquake Activity

City Distance Mag. Time & Date
Minimum magnitude displayed is 2.5.

Coastal Water Temperatures

Place Temperature

Stations

Nearby Weather Stations

Station Location Temp. Windchill Dew Point Humidity Wind Precip. Elev Updated Type
                   
Freeze Warning
Statement as of 3:25 AM EDT on March 28, 2015

... Freeze warning in effect from 2 am to 10 am EDT Sunday...

The National Weather Service in Wilmington has issued a freeze
warning... which is in effect from 2 am to 10 am EDT Sunday. The
freeze watch is no longer in effect.

* Lowest temperatures... 26 to 32 around sunrise.

* Timing... late tonight into Sunday morning.

* Impacts... cold sensitive vegetation such as blueberries and
strawberries... peaches and apricots... early field crops... tree
buds... and patio plants and ornamentals could be damaged or
killed. Those with agricultural and gardening interests should
prepare for freezing temperatures and take necessary precautions.

Precautionary/preparedness actions...

A freeze warning means sub-freezing temperatures are imminent or
highly likely. These conditions will kill crops and other
sensitive vegetation.



Tra